Time;durP1;ratioP1;P1;durP2;ratioP2;P2;SDS_P1;SDS_P2;PMS_P1;PMS_P2;Temp;Humidity;BMP_temperature;BMP_pressure;BME280_temperature;BME280_humidity;BME280_pressure;Samples;Min_cycle;Max_cycle;Signal;HPM_P1;HPM_P2
2023/10/26 00:02:11;;;;;;;;;;;14.00;76.10;;;;;;5115415;28;20313;-70
2023/10/26 00:04:37;;;;;;;;;;;14.00;76.00;;;;;;5115827;28;19916;-70
2023/10/26 00:07:04;;;;;;;;;;;14.00;76.00;;;;;;5115727;28;19977;-70
2023/10/26 00:09:29;;;;;;;;;;;13.90;75.40;;;;;;5115627;27;19951;-69
2023/10/26 00:11:55;;;;;;;;;;;14.00;75.80;;;;;;5114840;28;19950;-70
2023/10/26 00:14:21;;;;;;;;;;;14.00;75.70;;;;;;5114316;28;20368;-70
2023/10/26 00:16:47;;;;;;;;;;;14.00;75.60;;;;;;5115477;28;20018;-70
2023/10/26 00:19:13;;;;;;;;;;;14.00;75.50;;;;;;5097158;28;20058;-70
2023/10/26 00:21:40;;;;;;;;;;;14.00;75.50;;;;;;5115159;28;20329;-70
2023/10/26 00:24:07;;;;;;;;;;;13.90;75.40;;;;;;5114196;28;20192;-70
2023/10/26 00:26:33;;;;;;;;;;;13.90;75.60;;;;;;5115265;28;20287;-70
2023/10/26 00:28:59;;;;;;;;;;;13.90;76.80;;;;;;5096834;28;19998;-70
2023/10/26 00:31:25;;;;;;;;;;;13.90;75.90;;;;;;5113579;28;19941;-70
2023/10/26 00:33:50;;;;;;;;;;;14.00;75.90;;;;;;5115077;28;19915;-70
2023/10/26 00:36:16;;;;;;;;;;;14.00;75.70;;;;;;5113536;28;19924;-70
2023/10/26 00:38:42;;;;;;;;;;;14.00;75.70;;;;;;5114852;28;19998;-70
2023/10/26 00:41:08;;;;;;;;;;;14.00;75.70;;;;;;5114200;28;19930;-70
2023/10/26 00:43:34;;;;;;;;;;;14.10;75.80;;;;;;5113509;28;20010;-70
2023/10/26 00:46:00;;;;;;;;;;;14.10;75.80;;;;;;5096814;28;20415;-70
2023/10/26 00:48:26;;;;;;;;;;;14.10;75.70;;;;;;5114939;28;20368;-70
2023/10/26 00:50:52;;;;;;;;;;;14.10;75.20;;;;;;5112765;28;19955;-70
2023/10/26 00:53:19;;;;;;;;;;;14.10;75.10;;;;;;5114411;28;19927;-70
2023/10/26 00:55:49;;;;;;;;;;;14.10;75.70;;;;;;5114690;28;20356;-70
2023/10/26 00:58:15;;;;;;;;;;;14.10;75.70;;;;;;5114727;28;19931;-70
2023/10/26 01:00:41;;;;;;;;;;;14.10;75.30;;;;;;5112838;28;19919;-70
2023/10/26 01:03:08;;;;;;;;;;;14.10;75.90;;;;;;5113166;28;19916;-70
2023/10/26 01:05:34;;;;;;;;;;;14.10;77.10;;;;;;5114448;27;19940;-70
2023/10/26 01:07:59;;;;;;;;;;;14.10;78.50;;;;;;5112985;28;20388;-70
2023/10/26 01:10:26;;;;;;;;;;;14.10;78.60;;;;;;5095659;28;20409;-69
2023/10/26 01:12:53;;;;;;;;;;;14.20;77.80;;;;;;5096082;28;19916;-70
2023/10/26 01:15:20;;;;;;;;;;;14.20;78.40;;;;;;5114211;28;19912;-70
2023/10/26 01:17:45;;;;;;;;;;;14.20;77.90;;;;;;5112883;28;19919;-70
2023/10/26 01:20:17;;;;;;;;;;;14.30;78.20;;;;;;5113741;28;20002;-70
2023/10/26 01:22:43;;;;;;;;;;;14.30;77.80;;;;;;5114253;28;20344;-70
2023/10/26 01:25:09;;;;;;;;;;;14.30;78.20;;;;;;5114173;28;19950;-69
2023/10/26 01:27:37;;;;;;;;;;;14.30;78.20;;;;;;5113930;28;19920;-70
2023/10/26 01:30:03;;;;;;;;;;;14.30;78.20;;;;;;5113989;28;19915;-69
2023/10/26 01:32:29;;;;;;;;;;;14.40;77.80;;;;;;5112570;28;19920;-70
2023/10/26 01:34:55;;;;;;;;;;;14.40;77.70;;;;;;5112713;28;19947;-69
2023/10/26 01:37:21;;;;;;;;;;;14.40;77.60;;;;;;5112361;28;20295;-70
2023/10/26 01:39:47;;;;;;;;;;;14.40;76.80;;;;;;5112808;28;20413;-70
2023/10/26 01:42:12;;;;;;;;;;;14.40;77.40;;;;;;5113647;28;19998;-70
2023/10/26 01:44:39;;;;;;;;;;;14.40;77.40;;;;;;5113848;28;19912;-69
2023/10/26 01:47:06;;;;;;;;;;;14.40;77.20;;;;;;5112653;28;19959;-70
2023/10/26 01:49:32;;;;;;;;;;;14.40;77.10;;;;;;5112566;28;19934;-70
2023/10/26 01:51:58;;;;;;;;;;;14.40;77.10;;;;;;5094722;28;19927;-70
2023/10/26 01:54:24;;;;;;;;;;;14.40;77.10;;;;;;5111755;28;20257;-70
2023/10/26 01:56:49;;;;;;;;;;;14.40;77.20;;;;;;5112255;28;19934;-70
2023/10/26 01:59:15;;;;;;;;;;;14.40;77.30;;;;;;5112574;28;19999;-70
2023/10/26 02:01:41;;;;;;;;;;;14.40;77.20;;;;;;5111783;28;20014;-70
2023/10/26 02:04:07;;;;;;;;;;;14.40;77.20;;;;;;5113625;28;20428;-70
2023/10/26 02:06:33;;;;;;;;;;;14.40;77.10;;;;;;5113587;28;19920;-70
2023/10/26 02:08:59;;;;;;;;;;;14.40;77.10;;;;;;5113341;28;20334;-70
2023/10/26 02:11:25;;;;;;;;;;;14.40;77.10;;;;;;5113140;28;20018;-70
2023/10/26 02:13:51;;;;;;;;;;;14.40;77.00;;;;;;5113446;28;19918;-70
2023/10/26 02:16:18;;;;;;;;;;;14.40;77.00;;;;;;5113555;28;20335;-70
2023/10/26 02:18:45;;;;;;;;;;;14.40;77.00;;;;;;5112176;28;20261;-70
2023/10/26 02:21:11;;;;;;;;;;;14.40;76.40;;;;;;5111638;28;19920;-70
2023/10/26 02:23:39;;;;;;;;;;;14.30;77.10;;;;;;5095102;28;19916;-70
2023/10/26 02:26:05;;;;;;;;;;;14.30;76.90;;;;;;5111934;28;20337;-70
2023/10/26 02:28:31;;;;;;;;;;;14.30;76.90;;;;;;5095179;28;20012;-70
2023/10/26 02:30:56;;;;;;;;;;;14.30;76.80;;;;;;5112927;28;20267;-70
2023/10/26 02:33:22;;;;;;;;;;;14.30;76.90;;;;;;5112099;28;19918;-70
2023/10/26 02:35:48;;;;;;;;;;;14.30;76.90;;;;;;5094761;28;19920;-70
2023/10/26 02:38:14;;;;;;;;;;;14.30;76.70;;;;;;5113172;28;19912;-70
2023/10/26 02:40:40;;;;;;;;;;;14.30;76.70;;;;;;5112854;28;20002;-70
2023/10/26 02:43:06;;;;;;;;;;;14.30;76.70;;;;;;5094921;28;19931;-70
2023/10/26 02:45:32;;;;;;;;;;;14.30;76.70;;;;;;5111899;28;19912;-70
2023/10/26 02:47:59;;;;;;;;;;;14.30;76.70;;;;;;5112925;28;19918;-70
2023/10/26 02:50:25;;;;;;;;;;;14.20;76.40;;;;;;5112660;28;19919;-70
2023/10/26 02:52:50;;;;;;;;;;;14.20;75.90;;;;;;5111783;28;20334;-70
2023/10/26 02:55:16;;;;;;;;;;;14.20;76.40;;;;;;5094797;28;19911;-70
2023/10/26 02:57:42;;;;;;;;;;;14.20;76.50;;;;;;5113051;28;19920;-70
2023/10/26 03:00:09;;;;;;;;;;;14.10;76.50;;;;;;5111300;28;19978;-70
2023/10/26 03:02:35;;;;;;;;;;;14.10;76.50;;;;;;5095019;28;19923;-70
2023/10/26 03:05:02;;;;;;;;;;;14.10;76.60;;;;;;5112856;28;19916;-70
2023/10/26 03:07:28;;;;;;;;;;;14.10;76.50;;;;;;5115507;28;19919;-70
2023/10/26 03:09:54;;;;;;;;;;;14.10;76.70;;;;;;5115528;28;19915;-69
2023/10/26 03:12:21;;;;;;;;;;;14.10;76.60;;;;;;5114638;28;19926;-70
2023/10/26 03:14:47;;;;;;;;;;;14.10;76.60;;;;;;5115474;28;19937;-70
2023/10/26 03:17:15;;;;;;;;;;;14.10;76.70;;;;;;5116932;28;20010;-70
2023/10/26 03:19:42;;;;;;;;;;;14.10;76.60;;;;;;5115310;28;19915;-70
2023/10/26 03:22:10;;;;;;;;;;;14.10;76.50;;;;;;5114736;28;19998;-70
2023/10/26 03:24:36;;;;;;;;;;;14.10;76.50;;;;;;5115195;28;20016;-70
2023/10/26 03:27:01;;;;;;;;;;;14.10;76.50;;;;;;5115296;28;19928;-70
2023/10/26 03:29:27;;;;;;;;;;;14.00;76.50;;;;;;5116476;28;20404;-70
2023/10/26 03:31:53;;;;;;;;;;;14.00;76.40;;;;;;5097563;28;19990;-70
2023/10/26 03:34:19;;;;;;;;;;;14.10;76.50;;;;;;5116298;28;20379;-70
2023/10/26 03:36:45;;;;;;;;;;;14.10;76.50;;;;;;5114815;28;19919;-70
2023/10/26 03:39:11;;;;;;;;;;;14.00;76.40;;;;;;5116163;28;19912;-69
2023/10/26 03:41:37;;;;;;;;;;;14.00;76.40;;;;;;5114335;28;19924;-70
2023/10/26 03:44:03;;;;;;;;;;;14.00;76.20;;;;;;5116158;28;19918;-70
2023/10/26 03:46:29;;;;;;;;;;;14.00;76.30;;;;;;5114815;28;19920;-69
2023/10/26 03:48:55;;;;;;;;;;;14.00;76.40;;;;;;5115796;28;19958;-70
2023/10/26 03:51:21;;;;;;;;;;;14.00;76.30;;;;;;5115688;28;20006;-70
2023/10/26 03:53:47;;;;;;;;;;;14.10;76.30;;;;;;5114776;28;19938;-70
2023/10/26 03:56:13;;;;;;;;;;;14.10;76.20;;;;;;5115800;27;20003;-70
2023/10/26 03:58:39;;;;;;;;;;;14.00;76.10;;;;;;5115943;28;20006;-70
2023/10/26 04:01:05;;;;;;;;;;;14.00;76.10;;;;;;5113839;28;19930;-69
2023/10/26 04:03:31;;;;;;;;;;;14.00;76.20;;;;;;5115898;28;19926;-70
2023/10/26 04:05:57;;;;;;;;;;;14.00;75.50;;;;;;5115551;28;19920;-70
2023/10/26 04:08:22;;;;;;;;;;;14.00;76.00;;;;;;5114191;28;20006;-70
2023/10/26 04:10:49;;;;;;;;;;;14.00;76.50;;;;;;5115089;28;19955;-70
2023/10/26 04:13:15;;;;;;;;;;;14.00;76.00;;;;;;5097533;28;20279;-69
2023/10/26 04:15:41;;;;;;;;;;;14.10;76.10;;;;;;5114153;28;19919;-70
2023/10/26 04:18:07;;;;;;;;;;;14.10;76.00;;;;;;5113521;28;19911;-70
2023/10/26 04:20:33;;;;;;;;;;;14.10;75.80;;;;;;5096769;28;20002;-70
2023/10/26 04:22:58;;;;;;;;;;;14.10;75.90;;;;;;5114111;28;19923;-69
2023/10/26 04:25:28;;;;;;;;;;;14.10;75.90;;;;;;5115087;28;20471;-70
2023/10/26 04:30:40;;;;;;;;;;;14.20;75.80;;;;;;5113655;28;19916;-70
2023/10/26 04:33:06;;;;;;;;;;;14.30;76.00;;;;;;5115142;28;20296;-70
2023/10/26 04:35:32;;;;;;;;;;;14.20;75.90;;;;;;5107544;27;19942;-70
2023/10/26 04:37:57;;;;;;;;;;;14.30;76.00;;;;;;5103335;28;19961;-70
2023/10/26 04:40:23;;;;;;;;;;;14.30;75.90;;;;;;5091364;28;19974;-70
2023/10/26 04:42:49;;;;;;;;;;;14.30;75.90;;;;;;5074275;28;20028;-70
2023/10/26 04:45:15;;;;;;;;;;;14.30;75.80;;;;;;5093820;28;20006;-70
2023/10/26 04:47:41;;;;;;;;;;;14.30;75.80;;;;;;5076601;28;19920;-69
2023/10/26 04:50:08;;;;;;;;;;;14.30;75.80;;;;;;5093929;28;20010;-69
2023/10/26 04:52:33;;;;;;;;;;;14.40;75.60;;;;;;5094498;28;20036;-70
2023/10/26 04:54:59;;;;;;;;;;;14.40;75.70;;;;;;5093205;28;20026;-70
2023/10/26 04:57:25;;;;;;;;;;;14.40;75.60;;;;;;5094312;28;19958;-70
2023/10/26 04:59:51;;;;;;;;;;;14.40;75.70;;;;;;5094273;28;19915;-70
2023/10/26 05:02:17;;;;;;;;;;;14.40;75.70;;;;;;5094126;28;20014;-70
2023/10/26 05:04:43;;;;;;;;;;;14.40;75.70;;;;;;5094026;28;19911;-70
2023/10/26 05:07:08;;;;;;;;;;;14.40;75.80;;;;;;5092876;28;20015;-69
2023/10/26 05:09:35;;;;;;;;;;;14.40;75.90;;;;;;5092966;28;20375;-70
2023/10/26 05:12:01;;;;;;;;;;;14.50;76.20;;;;;;5093644;28;19919;-70
2023/10/26 05:14:27;;;;;;;;;;;14.50;76.10;;;;;;5094044;28;20006;-70
2023/10/26 05:16:53;;;;;;;;;;;14.40;75.90;;;;;;5075716;28;20053;-70
2023/10/26 05:19:19;;;;;;;;;;;14.50;76.10;;;;;;5092665;28;19918;-70
2023/10/26 05:21:44;;;;;;;;;;;14.50;76.10;;;;;;5075180;28;20019;-70
2023/10/26 05:24:10;;;;;;;;;;;14.40;76.10;;;;;;5092505;28;20006;-70
2023/10/26 05:26:36;;;;;;;;;;;14.40;76.10;;;;;;5092651;28;19924;-70
2023/10/26 05:29:03;;;;;;;;;;;14.50;76.20;;;;;;5093722;28;19918;-69
2023/10/26 05:31:29;;;;;;;;;;;14.40;76.00;;;;;;5092048;28;19916;-70
2023/10/26 05:33:55;;;;;;;;;;;14.40;76.10;;;;;;5126438;27;19916;-70
2023/10/26 05:36:21;;;;;;;;;;;14.40;76.20;;;;;;5093662;28;19961;-70
2023/10/26 05:38:47;;;;;;;;;;;14.40;76.20;;;;;;5126433;27;19916;-70
2023/10/26 05:41:13;;;;;;;;;;;14.40;76.20;;;;;;5101570;28;19946;-69
2023/10/26 05:43:38;;;;;;;;;;;14.40;76.20;;;;;;5114044;28;19955;-70
2023/10/26 05:46:05;;;;;;;;;;;14.40;76.10;;;;;;5112533;28;19954;-70
2023/10/26 05:48:31;;;;;;;;;;;14.40;76.00;;;;;;5113724;28;19923;-70
2023/10/26 05:50:58;;;;;;;;;;;14.40;76.10;;;;;;5112114;28;20353;-70
2023/10/26 05:53:24;;;;;;;;;;;14.30;76.10;;;;;;5113860;28;19916;-69
2023/10/26 05:56:08;;;;;;;;;;;14.30;76.70;;;;;;5112332;28;19926;-70
2023/10/26 05:58:34;;;;;;;;;;;14.20;76.70;;;;;;5112357;28;19958;-70
2023/10/26 06:01:00;;;;;;;;;;;14.20;76.90;;;;;;5111617;28;19919;-70
2023/10/26 06:03:26;;;;;;;;;;;14.20;76.10;;;;;;5112458;28;19912;-70
2023/10/26 06:06:17;;;;;;;;;;;14.20;76.10;;;;;;5112513;28;19973;-70
2023/10/26 06:08:43;;;;;;;;;;;14.20;76.50;;;;;;5113538;28;19911;-70
2023/10/26 06:11:09;;;;;;;;;;;14.20;76.70;;;;;;5113263;28;19930;-71
2023/10/26 06:13:34;;;;;;;;;;;14.30;76.60;;;;;;5113621;28;20002;-70
2023/10/26 06:16:00;;;;;;;;;;;14.30;76.40;;;;;;5095053;28;20010;-70
2023/10/26 06:18:26;;;;;;;;;;;14.40;76.30;;;;;;5112211;28;19942;-70
2023/10/26 06:21:13;;;;;;;;;;;14.50;76.20;;;;;;5111572;28;20002;-70
2023/10/26 06:23:38;;;;;;;;;;;14.40;76.10;;;;;;5113580;28;19919;-70
2023/10/26 06:26:05;;;;;;;;;;;14.50;76.00;;;;;;5113299;28;20276;-70
2023/10/26 06:28:30;;;;;;;;;;;14.40;76.90;;;;;;5113436;28;19919;-70
2023/10/26 06:31:08;;;;;;;;;;;14.40;77.00;;;;;;5112677;28;19970;-70
2023/10/26 06:33:33;;;;;;;;;;;14.40;77.20;;;;;;5112237;28;19915;-70
2023/10/26 06:35:59;;;;;;;;;;;14.50;77.80;;;;;;5113195;28;20196;-69
2023/10/26 06:38:25;;;;;;;;;;;14.60;77.90;;;;;;5112106;28;19920;-70
2023/10/26 06:40:51;;;;;;;;;;;14.70;78.10;;;;;;5115534;28;20000;-70
2023/10/26 06:43:17;;;;;;;;;;;14.70;78.30;;;;;;5116108;28;19922;-70
2023/10/26 06:45:43;;;;;;;;;;;14.80;78.60;;;;;;5117250;28;19915;-70
2023/10/26 06:48:09;;;;;;;;;;;14.80;78.60;;;;;;5117036;28;19957;-70
2023/10/26 06:50:34;;;;;;;;;;;14.80;78.50;;;;;;5116887;28;20003;-70
2023/10/26 06:53:00;;;;;;;;;;;14.90;78.80;;;;;;5117134;28;19962;-70
2023/10/26 06:55:27;;;;;;;;;;;14.90;78.70;;;;;;5116851;28;20006;-70
2023/10/26 06:57:53;;;;;;;;;;;15.00;78.50;;;;;;5115667;28;20122;-70
2023/10/26 07:00:19;;;;;;;;;;;15.00;78.30;;;;;;5115276;28;19951;-70
2023/10/26 07:02:45;;;;;;;;;;;15.10;78.40;;;;;;5117014;27;20288;-70
2023/10/26 07:05:10;;;;;;;;;;;15.10;79.10;;;;;;5115728;28;19955;-70
2023/10/26 07:07:36;;;;;;;;;;;15.20;78.00;;;;;;5117400;28;19999;-70
2023/10/26 07:10:02;;;;;;;;;;;15.20;78.20;;;;;;5115201;28;19916;-70
2023/10/26 07:12:30;;;;;;;;;;;15.20;78.20;;;;;;5115614;28;19958;-70
2023/10/26 07:14:59;;;;;;;;;;;15.20;77.90;;;;;;5116838;28;19915;-70
2023/10/26 07:17:25;;;;;;;;;;;15.30;77.80;;;;;;5115494;28;19919;-70
2023/10/26 07:19:51;;;;;;;;;;;15.40;77.80;;;;;;5116778;28;19976;-70
2023/10/26 07:22:17;;;;;;;;;;;15.50;77.80;;;;;;5114953;28;20295;-70
2023/10/26 07:24:43;;;;;;;;;;;15.60;77.80;;;;;;5116624;28;20030;-70
2023/10/26 07:27:09;;;;;;;;;;;15.70;77.90;;;;;;5098099;28;20022;-70
2023/10/26 07:29:34;;;;;;;;;;;15.70;77.60;;;;;;5098288;28;19998;-70
2023/10/26 07:32:00;;;;;;;;;;;15.80;77.40;;;;;;5116122;28;19920;-70
2023/10/26 07:34:26;;;;;;;;;;;15.90;78.10;;;;;;5115319;28;19919;-70
2023/10/26 07:36:52;;;;;;;;;;;16.00;78.00;;;;;;5097907;28;19919;-70
2023/10/26 07:39:18;;;;;;;;;;;16.20;78.80;;;;;;5116441;28;20003;-70
2023/10/26 07:41:44;;;;;;;;;;;16.30;79.20;;;;;;5097512;28;19995;-69
2023/10/26 07:44:10;;;;;;;;;;;16.40;78.50;;;;;;5115047;28;19935;-70
2023/10/26 07:46:36;;;;;;;;;;;16.60;78.90;;;;;;5116110;28;19923;-70
2023/10/26 07:49:02;;;;;;;;;;;16.70;78.50;;;;;;5097742;28;20320;-70
2023/10/26 07:51:28;;;;;;;;;;;16.90;78.00;;;;;;5096035;28;19923;-70
2023/10/26 07:53:54;;;;;;;;;;;17.20;77.40;;;;;;5114845;28;19912;-70
2023/10/26 07:56:20;;;;;;;;;;;17.60;76.70;;;;;;5115881;28;20300;-70
2023/10/26 07:58:46;;;;;;;;;;;18.00;75.70;;;;;;5115954;28;19911;-70
2023/10/26 08:01:12;;;;;;;;;;;18.40;74.70;;;;;;5115396;28;19920;-70
2023/10/26 08:03:38;;;;;;;;;;;18.50;73.50;;;;;;5115941;28;19916;-70
2023/10/26 08:06:06;;;;;;;;;;;18.80;73.30;;;;;;5114458;28;19962;-70
2023/10/26 08:08:32;;;;;;;;;;;19.30;71.70;;;;;;5097844;28;20326;-70
2023/10/26 08:11:17;;;;;;;;;;;21.50;64.30;;;;;;5113759;28;19977;-70
2023/10/26 08:13:43;;;;;;;;;;;23.50;58.00;;;;;;5115656;28;19911;-70
2023/10/26 08:16:09;;;;;;;;;;;25.00;53.90;;;;;;5115547;28;20267;-70
2023/10/26 08:18:35;;;;;;;;;;;26.20;49.90;;;;;;5114263;28;19911;-70
2023/10/26 08:23:47;;;;;;;;;;;28.00;44.40;;;;;;5103513;28;20192;-70
2023/10/26 08:26:13;;;;;;;;;;;28.70;41.60;;;;;;5094626;28;20007;-70
2023/10/26 08:28:38;;;;;;;;;;;29.10;38.90;;;;;;5081901;28;19998;-70
2023/10/26 08:31:06;;;;;;;;;;;29.40;38.60;;;;;;5103088;28;20011;-70
2023/10/26 08:36:18;;;;;;;;;;;29.80;39.00;;;;;;5093471;28;19926;-69
2023/10/26 08:38:44;;;;;;;;;;;29.00;38.60;;;;;;5094505;28;20014;-70
2023/10/26 08:41:12;;;;;;;;;;;28.20;40.10;;;;;;5109704;28;19925;-70
2023/10/26 08:43:40;;;;;;;;;;;27.20;43.30;;;;;;5093331;28;19915;-68
2023/10/26 08:46:10;;;;;;;;;;;26.60;44.00;;;;;;5093070;28;19924;-70
2023/10/26 08:48:39;;;;;;;;;;;26.20;42.40;;;;;;5076786;28;20355;-70
2023/10/26 08:51:05;;;;;;;;;;;25.60;42.30;;;;;;5092686;28;19920;-70
2023/10/26 08:53:34;;;;;;;;;;;25.10;44.30;;;;;;5094635;28;19999;-70
2023/10/26 08:56:00;;;;;;;;;;;25.40;43.90;;;;;;5094429;28;19927;-70
2023/10/26 08:58:26;;;;;;;;;;;25.20;43.10;;;;;;5094137;28;19919;-70
2023/10/26 09:00:52;;;;;;;;;;;24.80;43.80;;;;;;5092510;28;19920;-68
2023/10/26 09:03:21;;;;;;;;;;;25.40;43.70;;;;;;5092791;28;19947;-68
2023/10/26 09:06:06;;;;;;;;;;;25.40;42.90;;;;;;5094320;28;19973;-68
2023/10/26 09:08:32;;;;;;;;;;;25.00;43.80;;;;;;5075707;28;19911;-68
2023/10/26 09:10:58;;;;;;;;;;;24.50;45.80;;;;;;5093685;28;20428;-68
2023/10/26 09:13:26;;;;;;;;;;;24.00;46.80;;;;;;5092851;28;19912;-70
2023/10/26 09:15:53;;;;;;;;;;;23.60;47.80;;;;;;5109703;28;19977;-70
2023/10/26 09:18:21;;;;;;;;;;;23.40;48.30;;;;;;5092459;28;19912;-70
2023/10/26 09:21:06;;;;;;;;;;;23.20;49.00;;;;;;5093270;28;19924;-70
2023/10/26 09:23:34;;;;;;;;;;;23.20;48.90;;;;;;5092852;28;19915;-69
2023/10/26 09:26:04;;;;;;;;;;;23.00;49.80;;;;;;5092591;28;19926;-70
2023/10/26 09:28:46;;;;;;;;;;;23.00;49.50;;;;;;5092467;28;19912;-70
2023/10/26 09:31:12;;;;;;;;;;;23.00;50.20;;;;;;5093448;28;19920;-68
2023/10/26 09:33:38;;;;;;;;;;;23.00;49.70;;;;;;5093656;28;19969;-70
2023/10/26 09:36:22;;;;;;;;;;;23.00;49.50;;;;;;5109104;28;19928;-70
2023/10/26 09:38:48;;;;;;;;;;;22.90;49.20;;;;;;5092098;28;19916;-70
2023/10/26 09:41:33;;;;;;;;;;;22.80;49.30;;;;;;5093238;28;20414;-70
2023/10/26 09:43:59;;;;;;;;;;;22.70;49.20;;;;;;5092317;28;19963;-70
2023/10/26 09:46:25;;;;;;;;;;;22.80;49.90;;;;;;5093312;28;19919;-68
2023/10/26 09:48:52;;;;;;;;;;;22.80;50.20;;;;;;5092147;28;19912;-71
2023/10/26 09:51:18;;;;;;;;;;;22.80;51.50;;;;;;5108608;28;19943;-68
2023/10/26 09:53:45;;;;;;;;;;;22.90;51.30;;;;;;5093598;28;20381;-68
2023/10/26 09:56:22;;;;;;;;;;;22.90;51.10;;;;;;5091980;28;20331;-68
2023/10/26 09:58:48;;;;;;;;;;;22.90;51.10;;;;;;5109036;28;20351;-68
2023/10/26 10:01:33;;;;;;;;;;;23.00;51.30;;;;;;5108374;28;20014;-68
2023/10/26 10:04:18;;;;;;;;;;;22.90;50.60;;;;;;5075168;28;20384;-68
2023/10/26 10:07:02;;;;;;;;;;;22.90;50.30;;;;;;5093371;28;19920;-68
2023/10/26 10:09:29;;;;;;;;;;;22.90;50.50;;;;;;5093132;28;20417;-68
2023/10/26 10:12:15;;;;;;;;;;;23.00;49.70;;;;;;5108414;28;20386;-68
2023/10/26 10:15:01;;;;;;;;;;;23.10;50.90;;;;;;5092652;28;20010;-68
2023/10/26 10:17:46;;;;;;;;;;;22.90;50.50;;;;;;5091714;28;19934;-68
2023/10/26 10:20:18;;;;;;;;;;;22.90;50.30;;;;;;5092443;28;20410;-68
2023/10/26 10:22:45;;;;;;;;;;;23.00;51.00;;;;;;5092873;28;20373;-68
2023/10/26 10:25:12;;;;;;;;;;;23.10;50.60;;;;;;5092866;28;19999;-68
2023/10/26 10:27:38;;;;;;;;;;;23.10;48.60;;;;;;5093581;28;19963;-68
2023/10/26 10:30:08;;;;;;;;;;;23.10;48.90;;;;;;5091215;28;19916;-68
2023/10/26 10:32:53;;;;;;;;;;;23.20;49.00;;;;;;5091960;28;20277;-68
2023/10/26 10:35:39;;;;;;;;;;;23.30;48.10;;;;;;5095995;28;19971;-68
2023/10/26 10:38:24;;;;;;;;;;;23.40;48.50;;;;;;5106761;28;19920;-68
2023/10/26 10:46:27;;;;;;;;;;;23.70;47.40;;;;;;5093004;28;19974;-68
2023/10/26 10:49:11;;;;;;;;;;;23.60;47.50;;;;;;5092573;28;19955;-68
2023/10/26 10:51:57;;;;;;;;;;;23.60;47.50;;;;;;5092323;28;19924;-68
2023/10/26 10:54:22;;;;;;;;;;;23.50;47.60;;;;;;5092875;28;19935;-69
2023/10/26 10:56:49;;;;;;;;;;;23.60;48.00;;;;;;5081358;28;20372;-68
2023/10/26 10:59:34;;;;;;;;;;;23.60;47.40;;;;;;5100190;28;20304;-68
2023/10/26 11:02:19;;;;;;;;;;;23.80;47.20;;;;;;5104077;28;19920;-68
2023/10/26 11:05:03;;;;;;;;;;;23.90;47.30;;;;;;5095924;28;19990;-68
2023/10/26 11:07:30;;;;;;;;;;;23.90;47.60;;;;;;5096033;28;19919;-68
2023/10/26 11:09:57;;;;;;;;;;;23.90;47.20;;;;;;5101448;28;19998;-68
2023/10/26 11:12:23;;;;;;;;;;;24.00;46.80;;;;;;5111397;28;19919;-68
2023/10/26 11:14:50;;;;;;;;;;;23.90;45.40;;;;;;5111747;28;19912;-68
2023/10/26 11:17:17;;;;;;;;;;;23.60;46.20;;;;;;5111656;28;20010;-68
2023/10/26 11:19:43;;;;;;;;;;;23.50;46.70;;;;;;5111767;28;19938;-68
2023/10/26 11:22:09;;;;;;;;;;;23.30;47.50;;;;;;5112497;28;19969;-68
2023/10/26 11:24:35;;;;;;;;;;;23.40;48.00;;;;;;5111305;28;19964;-68
2023/10/26 11:27:23;;;;;;;;;;;23.40;48.40;;;;;;5114175;28;19920;-69
2023/10/26 11:30:05;;;;;;;;;;;23.50;47.60;;;;;;5116477;28;19911;-71
2023/10/26 11:32:31;;;;;;;;;;;23.40;48.70;;;;;;5116383;28;19915;-69
2023/10/26 11:38:03;;;;;;;;;;;23.20;48.50;;;;;;5114868;28;19964;-69
2023/10/26 11:40:30;;;;;;;;;;;23.00;49.40;;;;;;5115598;28;19916;-68
2023/10/26 11:42:59;;;;;;;;;;;23.00;48.90;;;;;;5115083;28;19926;-68
2023/10/26 11:45:26;;;;;;;;;;;22.90;48.10;;;;;;5114941;28;20010;-70
2023/10/26 11:47:53;;;;;;;;;;;22.90;48.60;;;;;;5114565;28;19920;-70
2023/10/26 11:50:38;;;;;;;;;;;23.00;47.80;;;;;;5114144;28;20322;-70
2023/10/26 11:53:05;;;;;;;;;;;23.20;47.40;;;;;;5114740;28;19965;-68
2023/10/26 11:55:32;;;;;;;;;;;23.20;47.70;;;;;;5114647;28;20010;-68
2023/10/26 11:57:59;;;;;;;;;;;23.20;48.10;;;;;;5114411;28;20262;-70
2023/10/26 12:00:26;;;;;;;;;;;23.20;48.50;;;;;;5114112;28;19916;-70
2023/10/26 12:03:12;;;;;;;;;;;23.30;48.90;;;;;;5115728;28;19915;-70
2023/10/26 12:05:38;;;;;;;;;;;23.40;48.90;;;;;;5115660;28;19969;-70
2023/10/26 12:08:04;;;;;;;;;;;23.50;49.30;;;;;;5097153;28;19915;-70
2023/10/26 12:10:30;;;;;;;;;;;23.60;49.60;;;;;;5115324;27;19916;-70
2023/10/26 12:12:59;;;;;;;;;;;23.60;48.50;;;;;;5114411;28;19962;-70
2023/10/26 12:15:25;;;;;;;;;;;23.60;48.50;;;;;;5114280;28;20337;-70
2023/10/26 12:17:51;;;;;;;;;;;23.60;48.30;;;;;;5114097;28;19922;-68
2023/10/26 12:20:17;;;;;;;;;;;23.60;48.00;;;;;;5114976;28;20352;-70
2023/10/26 12:22:44;;;;;;;;;;;23.60;46.90;;;;;;5114218;28;20067;-70
2023/10/26 12:27:54;;;;;;;;;;;23.50;47.10;;;;;;5114282;28;19926;-68
2023/10/26 12:30:20;;;;;;;;;;;23.40;47.40;;;;;;5096561;27;19951;-70
2023/10/26 12:32:46;;;;;;;;;;;23.30;47.00;;;;;;5113982;28;19920;-70
2023/10/26 12:35:13;;;;;;;;;;;23.30;47.10;;;;;;5115177;28;20356;-70
2023/10/26 12:37:38;;;;;;;;;;;23.20;46.90;;;;;;5114688;28;19919;-70
2023/10/26 12:40:08;;;;;;;;;;;23.10;47.40;;;;;;5114729;28;19966;-71
2023/10/26 12:42:35;;;;;;;;;;;23.10;47.20;;;;;;5114025;28;19908;-70
2023/10/26 12:45:01;;;;;;;;;;;23.00;46.80;;;;;;5113880;28;19926;-68
2023/10/26 12:47:26;;;;;;;;;;;22.90;47.70;;;;;;5113730;28;19911;-70
2023/10/26 12:49:52;;;;;;;;;;;23.00;47.60;;;;;;5114841;28;20010;-68
2023/10/26 12:52:18;;;;;;;;;;;23.10;47.80;;;;;;5113061;28;20049;-70
2023/10/26 12:54:44;;;;;;;;;;;23.10;47.60;;;;;;5113694;28;19912;-70
2023/10/26 12:57:10;;;;;;;;;;;23.10;47.80;;;;;;5111768;28;20000;-70
2023/10/26 12:59:36;;;;;;;;;;;23.00;47.60;;;;;;5096708;28;19929;-70
2023/10/26 13:02:01;;;;;;;;;;;23.00;48.20;;;;;;5093917;28;19999;-70
2023/10/26 13:04:29;;;;;;;;;;;23.10;48.40;;;;;;5093299;28;19931;-70
2023/10/26 13:06:54;;;;;;;;;;;23.30;48.00;;;;;;5075849;28;19920;-70
2023/10/26 13:09:20;;;;;;;;;;;23.50;47.30;;;;;;5093047;28;20424;-68
2023/10/26 13:11:46;;;;;;;;;;;23.60;46.80;;;;;;5093836;28;20387;-68
2023/10/26 13:14:12;;;;;;;;;;;23.60;47.30;;;;;;5094044;28;19956;-70
2023/10/26 13:16:38;;;;;;;;;;;23.40;46.50;;;;;;5075780;28;19930;-69
2023/10/26 13:19:04;;;;;;;;;;;23.40;46.30;;;;;;5075704;28;20376;-70
2023/10/26 13:21:30;;;;;;;;;;;23.60;46.30;;;;;;5092193;28;20368;-70
2023/10/26 13:23:56;;;;;;;;;;;23.80;46.30;;;;;;5093896;28;20344;-68
2023/10/26 13:26:22;;;;;;;;;;;24.10;46.10;;;;;;5093809;28;19977;-70
2023/10/26 13:28:47;;;;;;;;;;;23.90;45.90;;;;;;5092805;28;19912;-70
2023/10/26 13:31:13;;;;;;;;;;;24.10;46.30;;;;;;5092067;28;19920;-70
2023/10/26 13:33:39;;;;;;;;;;;24.90;44.30;;;;;;5093728;28;20006;-70
2023/10/26 13:36:06;;;;;;;;;;;24.80;44.10;;;;;;5093556;28;19974;-70
2023/10/26 13:38:32;;;;;;;;;;;24.60;44.20;;;;;;5092437;28;20331;-70
2023/10/26 13:40:59;;;;;;;;;;;24.30;44.90;;;;;;5091619;28;19924;-70
2023/10/26 13:43:25;;;;;;;;;;;24.10;45.70;;;;;;5093620;28;20284;-70
2023/10/26 13:45:51;;;;;;;;;;;23.90;46.10;;;;;;5093375;28;19920;-70
2023/10/26 13:48:17;;;;;;;;;;;23.70;45.50;;;;;;5092796;28;20011;-70
2023/10/26 13:50:43;;;;;;;;;;;23.50;46.80;;;;;;5088921;28;20003;-70
2023/10/26 13:53:09;;;;;;;;;;;23.30;46.90;;;;;;5072999;28;19924;-70
2023/10/26 13:55:38;;;;;;;;;;;23.20;47.00;;;;;;5071990;28;19916;-70
2023/10/26 14:00:49;;;;;;;;;;;22.90;47.60;;;;;;5077947;28;19927;-70
2023/10/26 14:03:14;;;;;;;;;;;22.80;47.40;;;;;;5092095;28;19944;-70
2023/10/26 14:05:49;;;;;;;;;;;22.70;48.40;;;;;;5091989;28;20276;-70
2023/10/26 14:08:15;;;;;;;;;;;22.50;48.20;;;;;;5093095;28;20464;-70
2023/10/26 14:10:41;;;;;;;;;;;22.30;48.30;;;;;;5091247;28;19916;-70
2023/10/26 14:13:07;;;;;;;;;;;22.30;48.40;;;;;;5093217;28;19916;-70
2023/10/26 14:15:34;;;;;;;;;;;22.10;48.70;;;;;;5093172;28;20003;-70
2023/10/26 14:18:00;;;;;;;;;;;22.00;48.70;;;;;;5091616;28;20384;-70
2023/10/26 14:20:26;;;;;;;;;;;22.00;48.70;;;;;;5092515;28;19959;-70
2023/10/26 14:22:52;;;;;;;;;;;22.00;48.80;;;;;;5093039;28;19927;-70
2023/10/26 14:25:18;;;;;;;;;;;22.10;48.60;;;;;;5091733;28;20006;-70
2023/10/26 14:27:44;;;;;;;;;;;22.10;48.70;;;;;;5092762;28;20074;-70
2023/10/26 14:30:10;;;;;;;;;;;22.20;48.40;;;;;;5091303;28;19912;-71
2023/10/26 14:32:37;;;;;;;;;;;22.10;48.80;;;;;;5091928;28;19911;-70
2023/10/26 14:35:03;;;;;;;;;;;22.00;49.10;;;;;;5091488;28;19954;-70
2023/10/26 14:37:29;;;;;;;;;;;21.90;48.60;;;;;;5091486;28;19916;-70
2023/10/26 14:39:55;;;;;;;;;;;21.80;49.20;;;;;;5095784;28;20289;-70
2023/10/26 14:42:21;;;;;;;;;;;21.70;50.00;;;;;;5091088;28;19920;-70